Time;durP1;ratioP1;P1;durP2;ratioP2;P2;SDS_P1;SDS_P2;PMS_P1;PMS_P2;Temp;Humidity;BMP_temperature;BMP_pressure;BME280_temperature;BME280_humidity;BME280_pressure;Samples;Min_cycle;Max_cycle;Signal;HPM_P1;HPM_P2
2021/05/13 00:00:31;;;;;;;17.60;8.50;;;8.80;99.90;;;;;;5021684;28;20222;-55
2021/05/13 00:02:56;;;;;;;15.77;9.70;;;8.80;99.90;;;;;;5022349;28;20165;-58
2021/05/13 00:05:22;;;;;;;11.60;8.53;;;8.80;99.90;;;;;;5013649;28;20206;-55
2021/05/13 00:07:48;;;;;;;12.87;8.57;;;8.80;99.90;;;;;;5026458;28;20176;-57
2021/05/13 00:10:17;;;;;;;14.87;9.17;;;8.80;99.90;;;;;;5025744;28;20179;-57
2021/05/13 00:15:19;;;;;;;13.37;8.40;;;8.80;99.90;;;;;;5025472;28;20550;-56
2021/05/13 00:17:45;;;;;;;17.30;8.40;;;8.80;99.90;;;;;;5026915;28;20406;-57
2021/05/13 00:20:14;;;;;;;12.87;7.63;;;8.80;99.90;;;;;;5026301;28;20496;-57
2021/05/13 00:22:40;;;;;;;10.80;7.70;;;8.80;99.90;;;;;;5010271;28;20184;-57
2021/05/13 00:25:06;;;;;;;12.23;7.50;;;8.80;99.90;;;;;;5022634;28;20976;-56
2021/05/13 00:27:32;;;;;;;11.77;7.77;;;8.80;99.90;;;;;;5018430;28;20566;-57
2021/05/13 00:29:58;;;;;;;13.60;8.70;;;8.80;99.90;;;;;;5014941;28;20492;-56
2021/05/13 00:32:24;;;;;;;15.63;8.20;;;8.80;99.90;;;;;;5019381;28;20423;-59
2021/05/13 00:34:49;;;;;;;12.73;7.90;;;8.70;99.90;;;;;;5024580;28;20203;-56
2021/05/13 00:37:15;;;;;;;11.10;7.53;;;8.70;99.90;;;;;;5024639;28;20187;-57
2021/05/13 00:39:41;;;;;;;13.40;8.07;;;8.70;99.90;;;;;;5013301;28;20248;-58
2021/05/13 00:42:06;;;;;;;17.97;9.13;;;8.70;99.90;;;;;;5021803;28;20194;-58
2021/05/13 00:44:44;;;;;;;13.70;8.33;;;8.70;99.90;;;;;;5028182;28;20188;-59
2021/05/13 00:47:12;;;;;;;14.10;8.37;;;8.70;99.90;;;;;;5021137;28;20215;-56
2021/05/13 00:49:38;;;;;;;19.83;9.73;;;8.70;99.90;;;;;;5028491;28;20513;-56
2021/05/13 00:52:09;;;;;;;17.80;10.57;;;8.70;99.90;;;;;;5029323;28;20791;-57
2021/05/13 00:54:37;;;;;;;18.13;10.47;;;8.70;99.90;;;;;;5027628;28;20536;-59
2021/05/13 00:57:05;;;;;;;17.93;10.60;;;8.70;99.90;;;;;;5026844;28;21005;-59
2021/05/13 00:59:33;;;;;;;18.33;10.47;;;8.70;99.90;;;;;;5029177;28;20418;-56
2021/05/13 01:01:59;;;;;;;14.60;9.70;;;8.80;99.90;;;;;;5030046;28;20496;-57
2021/05/13 01:04:25;;;;;;;23.60;10.60;;;8.80;99.90;;;;;;5027301;28;20454;-57
2021/05/13 01:06:50;;;;;;;20.53;9.60;;;8.80;99.90;;;;;;5027165;28;20262;-56
2021/05/13 01:09:25;;;;;;;16.07;8.63;;;8.80;99.90;;;;;;5029574;28;20189;-59
2021/05/13 01:12:00;;;;;;;18.30;9.20;;;8.80;99.90;;;;;;5028960;28;20179;-56
2021/05/13 01:14:30;;;;;;;;;;;;;;;;;;;;;
2021/05/13 01:17:04;;;;;;;21.07;9.30;;;8.80;99.90;;;;;;5029014;28;20438;-56
2021/05/13 01:19:30;;;;;;;18.67;10.67;;;8.80;99.90;;;;;;5028166;28;20814;-56
2021/05/13 01:21:56;;;;;;;19.83;10.17;;;8.80;99.90;;;;;;5024815;28;20451;-56
2021/05/13 01:24:23;;;;;;;17.20;10.40;;;8.80;99.90;;;;;;5013676;28;20702;-56
2021/05/13 01:26:49;;;;;;;14.00;9.40;;;8.80;99.90;;;;;;5028870;28;20505;-56
2021/05/13 01:29:18;;;;;;;16.33;10.13;;;8.80;99.90;;;;;;5024787;28;20427;-55
2021/05/13 01:31:44;;;;;;;16.70;10.20;;;8.80;99.90;;;;;;5012824;28;20437;-55
2021/05/13 01:34:10;;;;;;;13.90;10.10;;;8.80;99.90;;;;;;5027610;28;20902;-56
2021/05/13 01:36:35;;;;;;;17.07;10.83;;;8.80;99.90;;;;;;5028368;28;20715;-55
2021/05/13 01:39:04;;;;;;;23.20;12.00;;;8.80;99.90;;;;;;5025832;28;20868;-56
2021/05/13 01:41:30;;;;;;;25.73;12.43;;;8.80;99.90;;;;;;5024226;28;20191;-58
2021/05/13 01:43:56;;;;;;;24.77;12.20;;;8.80;99.90;;;;;;5025067;28;20443;-56
2021/05/13 01:46:22;;;;;;;24.23;12.77;;;8.70;99.90;;;;;;5028174;28;20237;-56
2021/05/13 01:48:47;;;;;;;18.73;11.27;;;8.70;99.90;;;;;;5024848;28;20188;-57
2021/05/13 01:51:13;;;;;;;21.20;11.67;;;8.70;99.90;;;;;;5019996;28;20184;-58
2021/05/13 01:53:40;;;;;;;18.27;10.60;;;8.70;99.90;;;;;;5015447;28;20195;-55
2021/05/13 01:56:10;;;;;;;13.10;8.53;;;8.80;99.90;;;;;;5021943;28;20559;-56
2021/05/13 01:58:37;;;;;;;12.97;8.77;;;8.80;99.90;;;;;;5024241;28;20464;-59
2021/05/13 02:01:05;;;;;;;13.60;7.53;;;8.80;99.90;;;;;;5022075;28;20561;-55
2021/05/13 02:03:31;;;;;;;12.07;7.50;;;8.80;99.90;;;;;;5021473;28;20439;-58
2021/05/13 02:05:56;;;;;;;11.63;6.23;;;8.80;99.90;;;;;;5026641;28;20525;-56
2021/05/13 02:08:22;;;;;;;10.83;7.30;;;8.80;99.90;;;;;;5022416;28;20430;-57
2021/05/13 02:10:47;;;;;;;12.77;7.37;;;8.80;99.90;;;;;;5020338;28;20567;-55
2021/05/13 02:13:13;;;;;;;16.77;8.03;;;8.70;99.90;;;;;;5024757;28;20260;-56
2021/05/13 02:15:40;;;;;;;14.27;7.73;;;8.80;99.90;;;;;;5027081;28;20558;-56
2021/05/13 02:18:06;;;;;;;12.60;7.23;;;8.80;99.90;;;;;;5028626;28;20398;-57
2021/05/13 02:20:32;;;;;;;11.77;7.43;;;8.80;99.90;;;;;;5028093;28;20461;-54
2021/05/13 02:22:58;;;;;;;10.47;6.60;;;8.70;99.90;;;;;;5013561;28;20431;-55
2021/05/13 02:25:31;;;;;;;10.77;7.10;;;8.70;99.90;;;;;;5020015;28;20454;-55
2021/05/13 02:27:57;;;;;;;10.10;6.57;;;8.70;99.90;;;;;;5022509;28;20430;-57
2021/05/13 02:30:22;;;;;;;11.37;7.73;;;8.70;99.90;;;;;;5024946;28;20437;-55
2021/05/13 02:32:48;;;;;;;14.20;7.67;;;8.70;99.90;;;;;;5025192;28;21104;-58
2021/05/13 02:35:14;;;;;;;21.30;11.20;;;8.70;99.90;;;;;;5026368;28;20574;-56
2021/05/13 02:37:41;;;;;;;16.43;10.23;;;8.70;99.90;;;;;;5028363;28;20194;-55
2021/05/13 02:40:09;;;;;;;21.23;9.67;;;8.60;99.90;;;;;;5025032;28;20855;-57
2021/05/13 02:42:35;;;;;;;18.73;10.10;;;8.60;99.90;;;;;;5025881;28;20584;-56
2021/05/13 02:45:01;;;;;;;17.37;9.73;;;8.60;99.90;;;;;;5025888;28;21136;-57
2021/05/13 02:47:27;;;;;;;16.67;10.00;;;8.60;99.90;;;;;;5017988;28;20445;-57
2021/05/13 02:49:52;;;;;;;14.47;9.70;;;8.60;99.90;;;;;;5008498;28;20580;-59
2021/05/13 02:52:18;;;;;;;14.67;8.80;;;8.60;99.90;;;;;;5016304;28;20578;-56
2021/05/13 02:54:44;;;;;;;15.07;9.20;;;8.60;99.90;;;;;;5025755;28;20563;-56
2021/05/13 02:57:09;;;;;;;14.00;9.17;;;8.60;99.90;;;;;;5027282;28;20205;-56
2021/05/13 02:59:46;;;;;;;17.83;9.70;;;8.60;99.90;;;;;;5023952;28;20168;-57
2021/05/13 03:02:13;;;;;;;16.63;9.27;;;8.60;99.90;;;;;;5021248;28;20546;-55
2021/05/13 03:04:39;;;;;;;16.63;10.30;;;8.60;99.90;;;;;;5024399;28;20788;-54
2021/05/13 03:07:05;;;;;;;15.70;9.57;;;8.60;99.90;;;;;;5027012;28;20476;-57
2021/05/13 03:09:33;;;;;;;17.80;10.50;;;8.60;99.90;;;;;;5027777;28;20417;-57
2021/05/13 03:11:58;;;;;;;23.33;10.30;;;8.60;99.90;;;;;;5026368;28;20434;-57
2021/05/13 03:14:24;;;;;;;29.40;12.03;;;8.50;99.90;;;;;;5014365;28;20475;-57
2021/05/13 03:16:50;;;;;;;24.43;11.30;;;8.50;99.90;;;;;;5023777;28;20203;-56
2021/05/13 03:19:29;;;;;;;17.97;10.70;;;8.50;99.90;;;;;;5020091;28;20512;-57
2021/05/13 03:21:59;;;;;;;21.80;10.93;;;8.50;99.90;;;;;;5016414;28;20195;-56
2021/05/13 03:24:37;;;;;;;19.90;11.87;;;8.50;99.90;;;;;;5022364;28;21034;-59
2021/05/13 03:27:12;;;;;;;19.67;11.70;;;8.50;99.90;;;;;;5021567;28;20430;-58
2021/05/13 03:29:38;;;;;;;25.40;10.90;;;8.50;99.90;;;;;;5023456;28;20414;-58
2021/05/13 03:32:04;;;;;;;19.93;10.30;;;8.40;99.90;;;;;;5022471;28;20794;-57
2021/05/13 03:34:29;;;;;;;43.57;12.33;;;8.40;99.90;;;;;;5025654;28;20208;-56
2021/05/13 03:36:55;;;;;;;67.53;12.00;;;8.40;99.90;;;;;;5026337;28;20519;-58
2021/05/13 03:39:20;;;;;;;45.67;12.53;;;8.30;99.90;;;;;;5020925;28;20171;-55
2021/05/13 03:41:46;;;;;;;31.70;12.10;;;8.30;99.90;;;;;;5025296;28;20211;-56
2021/05/13 03:44:12;;;;;;;18.97;10.43;;;8.30;99.90;;;;;;5020093;28;20199;-58
2021/05/13 03:46:38;;;;;;;41.63;13.07;;;8.20;99.90;;;;;;5017517;28;20673;-59
2021/05/13 03:49:03;;;;;;;57.00;12.60;;;8.30;99.90;;;;;;5018962;28;20267;-56
2021/05/13 03:51:29;;;;;;;33.90;11.10;;;8.20;99.90;;;;;;5026080;28;20172;-57
2021/05/13 03:53:55;;;;;;;43.67;12.33;;;8.20;99.90;;;;;;5021834;28;20203;-57
2021/05/13 03:56:21;;;;;;;46.57;12.77;;;8.20;99.90;;;;;;5017056;28;20564;-57
2021/05/13 03:59:00;;;;;;;62.03;13.23;;;8.20;99.90;;;;;;5024697;28;20179;-58
2021/05/13 04:01:46;;;;;;;25.43;12.27;;;8.20;99.90;;;;;;5023672;28;20486;-56
2021/05/13 04:04:12;;;;;;;20.07;11.57;;;8.10;99.90;;;;;;5017959;28;20454;-55
2021/05/13 04:06:38;;;;;;;21.10;11.10;;;8.20;99.90;;;;;;5025759;28;20941;-56
2021/05/13 04:09:08;;;;;;;19.13;10.93;;;8.20;99.90;;;;;;5029525;28;20422;-56
2021/05/13 04:11:35;;;;;;;19.83;11.50;;;8.20;99.90;;;;;;5024226;28;20798;-56
2021/05/13 04:14:01;;;;;;;29.90;11.33;;;8.20;99.90;;;;;;5027789;28;20465;-56
2021/05/13 04:16:27;;;;;;;20.00;10.80;;;8.20;99.90;;;;;;5029715;28;20913;-55
2021/05/13 04:18:53;;;;;;;27.73;11.37;;;8.20;99.90;;;;;;5029866;28;20711;-58
2021/05/13 04:21:19;;;;;;;35.37;10.20;;;8.20;99.90;;;;;;5021836;28;20454;-57
2021/05/13 04:23:45;;;;;;;20.93;10.07;;;8.20;99.90;;;;;;5028533;28;20458;-58
2021/05/13 04:26:10;;;;;;;42.17;10.37;;;8.20;99.90;;;;;;5028053;28;20574;-57
2021/05/13 04:28:36;;;;;;;34.20;9.40;;;8.20;99.90;;;;;;5026289;28;20666;-56
2021/05/13 04:31:02;;;;;;;49.63;11.20;;;8.20;99.90;;;;;;5028679;28;20598;-55
2021/05/13 04:33:27;;;;;;;49.60;10.43;;;8.10;99.90;;;;;;5026959;28;20228;-58
2021/05/13 04:35:53;;;;;;;23.77;9.83;;;8.10;99.90;;;;;;5029825;28;20242;-56
2021/05/13 04:38:18;;;;;;;22.33;9.30;;;8.10;99.90;;;;;;5021645;28;20680;-56
2021/05/13 04:40:45;;;;;;;47.30;9.07;;;8.10;99.90;;;;;;5019615;28;20207;-55
2021/05/13 04:43:11;;;;;;;42.93;10.00;;;8.10;99.90;;;;;;5027987;28;20207;-57
2021/05/13 04:45:37;;;;;;;19.83;9.37;;;8.10;99.90;;;;;;5020105;28;20473;-57
2021/05/13 04:48:07;;;;;;;22.37;8.77;;;8.20;99.90;;;;;;5010892;28;20412;-56
2021/05/13 04:50:34;;;;;;;37.93;9.80;;;8.10;99.90;;;;;;5025305;28;20184;-57
2021/05/13 04:53:04;;;;;;;34.13;9.63;;;8.20;99.90;;;;;;5027493;28;21061;-56
2021/05/13 04:55:30;;;;;;;29.53;9.30;;;8.20;99.90;;;;;;5025394;28;20927;-56
2021/05/13 04:57:55;;;;;;;48.60;9.70;;;8.30;99.90;;;;;;5023160;28;20514;-57
2021/05/13 05:00:21;;;;;;;51.37;9.07;;;8.30;99.90;;;;;;5020898;28;20179;-56
2021/05/13 05:02:47;;;;;;;18.47;9.03;;;8.20;99.90;;;;;;5030022;28;20295;-57
2021/05/13 05:05:13;;;;;;;15.77;9.47;;;8.30;99.90;;;;;;5023310;28;20243;-56
2021/05/13 05:07:38;;;;;;;20.23;8.97;;;8.30;99.90;;;;;;5027293;28;20213;-56
2021/05/13 05:10:05;;;;;;;30.93;9.50;;;8.30;99.90;;;;;;5027449;28;20993;-55
2021/05/13 05:12:30;;;;;;;40.87;9.50;;;8.40;99.90;;;;;;5028354;28;20168;-57
2021/05/13 05:14:57;;;;;;;16.97;7.83;;;8.50;99.90;;;;;;5041681;22;20887;-58
2021/05/13 05:17:23;;;;;;;11.70;7.40;;;8.50;99.90;;;;;;5029401;28;20187;-58
2021/05/13 05:19:49;;;;;;;14.90;7.53;;;8.50;99.90;;;;;;5027708;28;20422;-59
2021/05/13 05:22:15;;;;;;;14.13;7.30;;;8.60;99.90;;;;;;5029266;28;20508;-58
2021/05/13 05:24:40;;;;;;;27.90;8.23;;;8.60;99.90;;;;;;5019417;28;20195;-58
2021/05/13 05:27:06;;;;;;;15.27;7.70;;;8.60;99.90;;;;;;5025993;28;20172;-63
2021/05/13 05:29:32;;;;;;;19.47;8.40;;;8.60;99.90;;;;;;5020858;28;20290;-58
2021/05/13 05:31:58;;;;;;;19.00;7.90;;;8.60;99.90;;;;;;5022033;28;20717;-59
2021/05/13 05:34:24;;;;;;;22.87;7.80;;;8.60;99.90;;;;;;5014599;28;20203;-59
2021/05/13 05:36:49;;;;;;;23.07;8.40;;;8.60;99.90;;;;;;5017261;28;20418;-58
2021/05/13 05:39:15;;;;;;;11.80;7.63;;;8.60;99.90;;;;;;5029842;28;20775;-58
2021/05/13 05:41:41;;;;;;;14.70;8.40;;;8.70;99.90;;;;;;5022415;28;20237;-58
2021/05/13 05:44:07;;;;;;;29.30;7.63;;;8.70;99.90;;;;;;5029405;28;20380;-58
2021/05/13 05:46:33;;;;;;;13.50;7.60;;;8.70;99.90;;;;;;5022409;28;20462;-59
2021/05/13 05:48:59;;;;;;;13.80;8.30;;;8.70;99.90;;;;;;5027268;28;20829;-58
2021/05/13 05:51:25;;;;;;;10.90;6.90;;;8.70;99.90;;;;;;5029180;28;20458;-58
2021/05/13 05:53:51;;;;;;;14.40;8.37;;;8.70;99.90;;;;;;5021539;28;20258;-59
2021/05/13 05:56:16;;;;;;;20.93;8.20;;;8.80;99.90;;;;;;5022716;28;20230;-58
2021/05/13 05:58:42;;;;;;;12.77;7.43;;;8.90;99.90;;;;;;5025739;28;20527;-57
2021/05/13 06:01:07;;;;;;;17.17;7.20;;;8.90;99.90;;;;;;5022539;28;20192;-58
2021/05/13 06:03:35;;;;;;;14.90;8.03;;;9.00;99.90;;;;;;5030459;28;20176;-58
2021/05/13 06:06:01;;;;;;;9.77;6.80;;;9.00;99.90;;;;;;5028181;28;20164;-58
2021/05/13 06:08:27;;;;;;;10.40;7.00;;;9.10;99.90;;;;;;5028708;28;20434;-58
2021/05/13 06:10:53;;;;;;;10.80;6.63;;;9.20;99.90;;;;;;5030812;28;20589;-58
2021/05/13 06:13:18;;;;;;;12.50;7.07;;;9.30;99.90;;;;;;5028898;28;20438;-58
2021/05/13 06:15:44;;;;;;;12.13;7.17;;;9.40;99.90;;;;;;5028166;28;20261;-57
2021/05/13 06:18:10;;;;;;;10.30;6.40;;;9.50;99.90;;;;;;5026538;28;20183;-59
2021/05/13 06:20:36;;;;;;;11.40;6.50;;;9.50;99.90;;;;;;5023851;28;20198;-58
2021/05/13 06:23:03;;;;;;;9.07;7.07;;;9.60;99.90;;;;;;5026813;28;20176;-58
2021/05/13 06:25:28;;;;;;;10.33;6.83;;;9.60;99.90;;;;;;5028166;28;20823;-58
2021/05/13 06:27:57;;;;;;;8.90;6.13;;;9.70;99.90;;;;;;5025203;28;20427;-59
2021/05/13 06:30:23;;;;;;;9.77;6.10;;;9.80;99.90;;;;;;5021776;28;20179;-59
2021/05/13 06:32:49;;;;;;;10.27;6.67;;;9.80;99.90;;;;;;5017934;28;20475;-59
2021/05/13 06:35:17;;;;;;;9.10;6.50;;;9.90;99.90;;;;;;5025980;28;20711;-59
2021/05/13 06:37:43;;;;;;;9.70;6.10;;;9.90;99.90;;;;;;5026572;28;20438;-59
2021/05/13 06:40:10;;;;;;;8.67;6.93;;;10.00;99.90;;;;;;5028157;28;20824;-59
2021/05/13 06:42:36;;;;;;;9.77;6.80;;;10.20;99.90;;;;;;5028651;28;20462;-58
2021/05/13 06:45:04;;;;;;;8.50;6.40;;;10.50;99.90;;;;;;5026121;28;20472;-57
2021/05/13 06:47:29;;;;;;;8.40;6.90;;;10.80;99.90;;;;;;5028451;28;20458;-59
2021/05/13 06:49:55;;;;;;;9.87;6.03;;;11.00;99.90;;;;;;5025854;28;20462;-59
2021/05/13 06:52:21;;;;;;;8.83;5.90;;;11.20;99.90;;;;;;5023350;28;20183;-60
2021/05/13 06:54:46;;;;;;;11.20;6.27;;;11.30;99.90;;;;;;5022628;28;20203;-59
2021/05/13 06:57:12;;;;;;;9.90;6.03;;;11.40;99.90;;;;;;5021480;28;20229;-57
2021/05/13 06:59:42;;;;;;;9.70;6.13;;;11.40;99.90;;;;;;5021834;28;20203;-56
2021/05/13 07:02:12;;;;;;;6.87;5.00;;;11.50;99.90;;;;;;5016242;28;20231;-61
2021/05/13 07:04:38;;;;;;;7.40;5.43;;;11.50;99.90;;;;;;5025591;28;20830;-63
2021/05/13 07:07:04;;;;;;;8.80;5.90;;;11.50;99.90;;;;;;5023468;28;20421;-62
2021/05/13 07:09:30;;;;;;;6.90;5.50;;;11.60;99.90;;;;;;5020245;28;20513;-63
2021/05/13 07:11:56;;;;;;;13.17;6.17;;;11.60;99.90;;;;;;5017810;28;20179;-62
2021/05/13 07:14:21;;;;;;;6.63;5.10;;;11.70;99.90;;;;;;5028542;28;20930;-60
2021/05/13 07:16:48;;;;;;;6.40;5.27;;;11.80;99.90;;;;;;5021745;28;20704;-56
2021/05/13 07:19:14;;;;;;;10.67;7.00;;;11.90;99.90;;;;;;5020447;28;20323;-60
2021/05/13 07:21:39;;;;;;;7.30;5.30;;;12.10;99.90;;;;;;5018594;28;20462;-61
2021/05/13 07:24:05;;;;;;;4.60;3.93;;;12.20;99.90;;;;;;5014834;28;20267;-60
2021/05/13 07:26:31;;;;;;;6.70;4.60;;;12.40;99.90;;;;;;5012398;28;20275;-60
2021/05/13 07:28:57;;;;;;;4.27;3.30;;;12.60;99.90;;;;;;5025480;28;20517;-59
2021/05/13 07:31:23;;;;;;;3.60;2.83;;;12.80;99.90;;;;;;5026643;28;20638;-60
2021/05/13 07:33:48;;;;;;;6.13;3.10;;;13.00;97.30;;;;;;5024851;28;20270;-59
2021/05/13 07:36:14;;;;;;;6.87;4.20;;;13.10;96.80;;;;;;5021717;28;20172;-59
2021/05/13 07:38:40;;;;;;;8.60;4.13;;;13.20;97.30;;;;;;5025340;28;20176;-59
2021/05/13 07:41:07;;;;;;;3.87;3.13;;;13.30;97.20;;;;;;5019346;28;20199;-59
2021/05/13 07:43:34;;;;;;;6.60;3.50;;;13.30;97.50;;;;;;5024255;28;20652;-59
2021/05/13 07:46:01;;;;;;;5.13;3.00;;;13.40;96.60;;;;;;5029113;28;20455;-61
2021/05/13 07:48:31;;;;;;;4.23;3.27;;;13.40;94.40;;;;;;5028273;28;20441;-60
2021/05/13 07:50:57;;;;;;;4.40;3.33;;;13.30;93.70;;;;;;5027337;28;20430;-61
2021/05/13 07:53:25;;;;;;;6.60;3.50;;;13.10;94.90;;;;;;5020079;28;20434;-59
2021/05/13 07:55:51;;;;;;;6.50;4.33;;;12.90;96.30;;;;;;5022715;28;20430;-60
2021/05/13 07:58:17;;;;;;;9.00;3.63;;;12.80;96.90;;;;;;5021898;28;20517;-60
2021/05/13 08:00:43;;;;;;;6.80;3.70;;;12.70;97.20;;;;;;5023242;28;20545;-60
2021/05/13 08:03:08;;;;;;;3.83;3.03;;;12.70;96.80;;;;;;5027713;28;20168;-60
2021/05/13 08:05:34;;;;;;;6.63;3.10;;;12.70;97.20;;;;;;5025768;28;20184;-59
2021/05/13 08:08:00;;;;;;;5.47;2.60;;;12.70;97.40;;;;;;5032637;28;20507;-60
2021/05/13 08:10:26;;;;;;;3.60;3.00;;;12.80;97.50;;;;;;5029475;28;20365;-60
2021/05/13 08:12:51;;;;;;;7.33;3.23;;;12.90;96.30;;;;;;5027702;28;20184;-58
2021/05/13 08:15:20;;;;;;;4.10;2.90;;;12.90;96.40;;;;;;5022654;28;20211;-59
2021/05/13 08:17:45;;;;;;;5.03;2.97;;;13.10;96.80;;;;;;5023407;28;20168;-60
2021/05/13 08:20:13;;;;;;;5.47;2.90;;;13.40;96.90;;;;;;5030149;28;20501;-60
2021/05/13 08:22:43;;;;;;;5.50;2.87;;;13.70;96.70;;;;;;5026362;28;20187;-59
2021/05/13 08:25:10;;;;;;;4.70;3.00;;;14.00;96.30;;;;;;5027668;28;20500;-58
2021/05/13 08:27:36;;;;;;;7.20;2.97;;;14.20;94.60;;;;;;5030050;28;20469;-59
2021/05/13 08:30:04;;;;;;;4.10;2.70;;;14.40;93.60;;;;;;5030364;28;20461;-59
2021/05/13 08:32:30;;;;;;;5.37;3.27;;;14.50;91.60;;;;;;5027223;28;20171;-59
2021/05/13 08:34:56;;;;;;;3.17;2.70;;;14.60;91.10;;;;;;5027387;28;20892;-60
2021/05/13 08:37:22;;;;;;;8.37;2.83;;;14.60;90.30;;;;;;5031172;28;20172;-59
2021/05/13 08:39:48;;;;;;;7.90;3.20;;;14.40;86.30;;;;;;5029129;28;20172;-59
2021/05/13 08:42:14;;;;;;;2.67;2.30;;;14.10;85.50;;;;;;5019229;28;20508;-59
2021/05/13 08:44:44;;;;;;;9.10;3.53;;;13.90;90.90;;;;;;5030828;28;20446;-59
2021/05/13 08:47:11;;;;;;;2.90;2.60;;;13.70;91.30;;;;;;5028280;28;20174;-60
2021/05/13 08:49:38;;;;;;;4.20;2.60;;;13.60;90.90;;;;;;5018857;28;21014;-59
2021/05/13 08:52:11;;;;;;;4.73;2.90;;;13.40;90.30;;;;;;5020208;28;20429;-59
2021/05/13 08:54:50;;;;;;;3.57;2.63;;;13.30;90.70;;;;;;5022177;28;20453;-59
2021/05/13 08:57:16;;;;;;;4.93;3.10;;;13.20;90.60;;;;;;5026306;28;20423;-57
2021/05/13 08:59:42;;;;;;;6.33;3.20;;;13.20;91.30;;;;;;5027710;28;21019;-58
2021/05/13 09:02:10;;;;;;;4.50;3.60;;;13.20;92.30;;;;;;5023135;28;21203;-57
2021/05/13 09:04:41;;;;;;;6.30;4.17;;;13.20;92.30;;;;;;5023280;28;20195;-59
2021/05/13 09:07:35;;;;;;;9.23;4.10;;;13.20;93.10;;;;;;5020914;28;21014;-58
2021/05/13 09:10:09;;;;;;;9.73;3.87;;;13.20;92.90;;;;;;5027013;28;20431;-58
2021/05/13 09:12:41;;;;;;;5.53;3.87;;;13.10;93.00;;;;;;5027879;28;21013;-59
2021/05/13 09:15:19;;;;;;;8.73;4.20;;;13.10;92.80;;;;;;5035705;28;20467;-60
2021/05/13 09:18:01;;;;;;;4.90;4.20;;;13.10;93.20;;;;;;5028163;28;20522;-59
2021/05/13 09:20:29;;;;;;;8.10;3.93;;;13.00;92.80;;;;;;5025588;28;20426;-60
2021/05/13 09:23:17;;;;;;;7.97;4.00;;;13.00;93.90;;;;;;5024690;28;20966;-57
2021/05/13 09:25:45;;;;;;;6.83;4.37;;;13.00;94.00;;;;;;5027680;28;20932;-58
2021/05/13 09:28:13;;;;;;;8.10;3.40;;;13.00;93.10;;;;;;5026221;28;20447;-59
2021/05/13 09:30:39;;;;;;;5.53;3.10;;;12.90;92.70;;;;;;5026537;28;20446;-59
2021/05/13 09:33:08;;;;;;;6.70;3.93;;;12.90;92.50;;;;;;5026453;28;20470;-56
2021/05/13 09:35:36;;;;;;;6.37;4.50;;;12.90;92.50;;;;;;5023720;28;20283;-58
2021/05/13 09:38:09;;;;;;;10.50;3.73;;;12.80;92.40;;;;;;5029136;28;20422;-58
2021/05/13 09:40:43;;;;;;;6.83;3.13;;;12.80;93.60;;;;;;5026289;28;20429;-57
2021/05/13 09:43:16;;;;;;;8.03;3.70;;;12.80;93.30;;;;;;5027879;28;20800;-58
2021/05/13 09:45:48;;;;;;;6.50;3.67;;;12.80;94.20;;;;;;5023997;28;20526;-58
2021/05/13 09:48:32;;;;;;;5.77;3.57;;;12.80;95.00;;;;;;5018392;28;20453;-58
2021/05/13 09:51:20;;;;;;;3.80;3.00;;;12.90;95.20;;;;;;5021753;28;20432;-58
2021/05/13 09:53:48;;;;;;;3.40;2.50;;;12.90;94.10;;;;;;5022614;28;20962;-58
2021/05/13 09:56:24;;;;;;;5.03;2.70;;;12.90;92.60;;;;;;5022842;28;20422;-59
2021/05/13 09:58:50;;;;;;;3.17;2.50;;;12.90;91.70;;;;;;5020944;28;20457;-59
2021/05/13 10:01:16;;;;;;;4.50;2.77;;;12.90;92.80;;;;;;5019126;28;20898;-57
2021/05/13 10:03:44;;;;;;;3.17;2.50;;;13.00;92.70;;;;;;5021045;28;20238;-59
2021/05/13 10:06:12;;;;;;;3.93;2.80;;;13.10;92.30;;;;;;5022626;28;20426;-58
2021/05/13 10:08:41;;;;;;;4.00;2.20;;;13.20;93.10;;;;;;5023262;28;20429;-59
2021/05/13 10:11:09;;;;;;;6.37;2.27;;;13.40;93.60;;;;;;5023419;28;20435;-59
2021/05/13 10:13:35;;;;;;;4.40;3.07;;;13.80;93.20;;;;;;5027573;28;20427;-59
2021/05/13 10:16:02;;;;;;;3.40;2.57;;;14.30;93.00;;;;;;5025550;28;20481;-59
2021/05/13 10:18:40;;;;;;;7.80;3.43;;;14.90;92.30;;;;;;5038171;28;20468;-60
2021/05/13 10:21:14;;;;;;;3.70;2.57;;;15.40;89.90;;;;;;5044010;28;20466;-59
2021/05/13 10:23:41;;;;;;;3.00;1.90;;;15.60;84.20;;;;;;5045654;28;20468;-59
2021/05/13 10:26:16;;;;;;;6.13;1.50;;;15.50;75.40;;;;;;5049353;28;20622;-60
2021/05/13 10:28:42;;;;;;;4.07;1.37;;;15.10;57.30;;;;;;5044154;28;20438;-60
2021/05/13 10:31:08;;;;;;;3.20;1.23;;;14.70;57.60;;;;;;5049651;28;20492;-70
2021/05/13 10:33:50;;;;;;;2.50;1.53;;;14.40;57.00;;;;;;5047292;28;20245;-59
2021/05/13 10:36:19;;;;;;;1.70;1.60;;;14.10;57.80;;;;;;5047510;28;20168;-60
2021/05/13 10:38:51;;;;;;;4.30;1.57;;;13.80;58.80;;;;;;5031932;28;20825;-60
2021/05/13 10:41:30;;;;;;;1.67;1.50;;;13.70;63.00;;;;;;5027552;28;20511;-60
2021/05/13 10:43:57;;;;;;;2.03;1.30;;;13.50;66.00;;;;;;5028180;28;21259;-61
2021/05/13 10:46:29;;;;;;;2.80;1.30;;;13.30;68.00;;;;;;5024349;28;20927;-59
2021/05/13 10:49:27;;;;;;;2.20;1.40;;;13.20;70.30;;;;;;5024651;28;20431;-61
2021/05/13 10:51:55;;;;;;;2.93;1.70;;;13.00;71.20;;;;;;4988311;28;20445;-60
2021/05/13 10:54:28;;;;;;;12.47;2.50;;;12.90;72.00;;;;;;5026615;28;20740;-59
2021/05/13 10:57:17;;;;;;;11.70;2.60;;;12.80;76.50;;;;;;5025946;28;20433;-58
2021/05/13 11:00:08;;;;;;;1.40;1.30;;;12.80;80.10;;;;;;5012215;28;20500;-59
2021/05/13 11:02:44;;;;;;;1.60;1.30;;;12.80;81.40;;;;;;5025422;28;20549;-59
2021/05/13 11:05:33;;;;;;;1.83;1.47;;;12.80;78.00;;;;;;5024562;28;20872;-59
2021/05/13 11:08:08;;;;;;;2.67;1.37;;;12.70;79.60;;;;;;5028278;28;20442;-60
2021/05/13 11:10:52;;;;;;;4.00;1.00;;;12.70;77.00;;;;;;5022495;28;22354;-60
2021/05/13 11:13:18;;;;;;;1.20;1.10;;;12.60;78.00;;;;;;5022306;28;20987;-59
2021/05/13 11:15:50;;;;;;;3.37;1.00;;;12.60;75.90;;;;;;5025157;28;20478;-59
2021/05/13 11:18:18;;;;;;;1.10;1.10;;;12.60;76.70;;;;;;5036897;28;20430;-57
2021/05/13 11:20:46;;;;;;;4.20;0.80;;;12.60;78.80;;;;;;5037630;28;20426;-56
2021/05/13 11:23:18;;;;;;;2.87;1.50;;;12.60;74.40;;;;;;5027073;28;20430;-57
2021/05/13 11:25:45;;;;;;;1.67;1.10;;;12.70;75.60;;;;;;5025076;28;20462;-59
2021/05/13 11:28:32;;;;;;;1.27;1.17;;;12.80;74.10;;;;;;5025816;28;20430;-58
2021/05/13 11:31:04;;;;;;;1.20;1.10;;;12.90;74.90;;;;;;5027120;28;20437;-56
2021/05/13 11:33:46;;;;;;;1.60;1.50;;;12.90;69.50;;;;;;5024529;28;20446;-57
2021/05/13 11:36:14;;;;;;;1.37;1.27;;;13.00;68.70;;;;;;5015240;28;20423;-60
2021/05/13 11:38:41;;;;;;;1.40;1.30;;;13.10;67.20;;;;;;5015773;28;21068;-59
2021/05/13 11:41:07;;;;;;;1.40;1.30;;;13.20;66.10;;;;;;5019586;28;20458;-60
2021/05/13 11:43:39;;;;;;;1.87;1.07;;;13.20;66.00;;;;;;5021003;28;20481;-59
2021/05/13 11:46:08;;;;;;;1.20;1.10;;;13.30;63.30;;;;;;5021316;28;20474;-60
2021/05/13 11:48:36;;;;;;;2.83;1.63;;;13.30;61.90;;;;;;5027013;28;20426;-60
2021/05/13 11:51:10;;;;;;;1.00;1.00;;;13.40;61.80;;;;;;5022111;28;20788;-58
2021/05/13 11:53:38;;;;;;;1.23;1.10;;;13.50;60.60;;;;;;5022777;28;20437;-59
2021/05/13 11:56:05;;;;;;;2.33;1.30;;;13.50;58.30;;;;;;5020035;28;20446;-60
2021/05/13 11:58:34;;;;;;;1.90;1.20;;;13.60;58.00;;;;;;5018378;28;20479;-58
2021/05/13 12:01:24;;;;;;;0.90;0.90;;;13.70;58.00;;;;;;5019103;28;20592;-60
2021/05/13 12:03:53;;;;;;;2.17;1.13;;;13.90;58.00;;;;;;5018960;28;20505;-58
2021/05/13 12:06:18;;;;;;;1.50;1.20;;;14.10;58.80;;;;;;5020911;28;20438;-60
2021/05/13 12:08:44;;;;;;;2.40;1.20;;;14.30;59.50;;;;;;5021614;28;20443;-61
2021/05/13 12:11:20;;;;;;;3.70;1.20;;;14.40;58.30;;;;;;5018529;28;20238;-59
2021/05/13 12:13:46;;;;;;;1.23;1.13;;;14.50;58.50;;;;;;5022175;28;20203;-60
2021/05/13 12:16:13;;;;;;;2.83;1.30;;;14.70;57.30;;;;;;5023533;28;20480;-62
2021/05/13 12:18:41;;;;;;;0.93;0.93;;;14.80;58.10;;;;;;5026517;28;20438;-60
2021/05/13 12:21:08;;;;;;;2.30;1.43;;;14.80;58.20;;;;;;5021567;28;20458;-59
2021/05/13 12:23:34;;;;;;;3.10;2.50;;;14.80;58.70;;;;;;5023276;28;20844;-60
2021/05/13 12:26:00;;;;;;;3.10;2.10;;;14.70;57.10;;;;;;5019006;28;20434;-58
2021/05/13 12:28:26;;;;;;;1.70;1.60;;;14.70;58.70;;;;;;5027420;28;20459;-59
2021/05/13 12:30:56;;;;;;;3.03;1.10;;;14.70;59.30;;;;;;5025768;28;20491;-60
2021/05/13 12:33:24;;;;;;;4.00;1.00;;;14.60;59.90;;;;;;5023857;28;20179;-59
2021/05/13 12:35:50;;;;;;;1.57;1.10;;;14.60;59.20;;;;;;5018348;28;20501;-59
2021/05/13 12:38:22;;;;;;;1.93;1.30;;;14.40;60.50;;;;;;5022262;28;20459;-59
2021/05/13 12:41:04;;;;;;;5.23;1.87;;;14.20;62.50;;;;;;5028918;28;20497;-60
2021/05/13 12:43:30;;;;;;;2.03;1.20;;;14.10;64.90;;;;;;5018799;28;20442;-60
2021/05/13 12:45:56;;;;;;;4.10;1.10;;;13.90;66.30;;;;;;5014735;28;21029;-59
2021/05/13 12:48:27;;;;;;;6.73;1.50;;;13.70;66.00;;;;;;5023278;28;20422;-59
2021/05/13 12:51:01;;;;;;;4.20;1.30;;;13.60;69.30;;;;;;5018280;28;20250;-59
2021/05/13 12:53:28;;;;;;;1.40;1.30;;;13.40;70.90;;;;;;5023388;28;20456;-60